createdAt,value
2022-10-29T00:01:19.459Z,-0.90
2022-10-29T00:03:49.956Z,-0.89
2022-10-29T00:06:18.808Z,-1.31
2022-10-29T00:08:47.660Z,-0.95
2022-10-29T00:11:22.494Z,-0.92
2022-10-29T00:13:56.515Z,-0.94
2022-10-29T00:16:30.441Z,-0.94
2022-10-29T00:18:59.373Z,-0.91
2022-10-29T00:21:28.612Z,-0.87
2022-10-29T00:23:58.224Z,-0.83
2022-10-29T00:26:30.333Z,-0.82
2022-10-29T00:28:59.189Z,-0.79
2022-10-29T00:31:28.125Z,-0.81
2022-10-29T00:33:56.950Z,-0.77
2022-10-29T00:36:30.719Z,-0.79
2022-10-29T00:38:59.527Z,-0.79
2022-10-29T00:41:30.439Z,-0.76
2022-10-29T00:44:23.570Z,-0.73
2022-10-29T00:47:22.294Z,-0.67
2022-10-29T00:50:03.580Z,-0.66
2022-10-29T00:52:35.937Z,-0.59
2022-10-29T00:55:07.905Z,-0.54
2022-10-29T00:57:49.798Z,-0.61
2022-10-29T01:00:20.696Z,-0.44
2022-10-29T01:02:50.527Z,-0.37
2022-10-29T01:05:22.411Z,-0.29
2022-10-29T01:07:51.384Z,-0.26
2022-10-29T01:10:33.790Z,-0.09
2022-10-29T01:13:19.900Z,0.13
2022-10-29T01:16:29.383Z,0.29
2022-10-29T01:19:25.827Z,0.48
2022-10-29T01:22:14.323Z,0.60
2022-10-29T01:25:15.932Z,0.75
2022-10-29T01:28:03.219Z,0.82
2022-10-29T01:30:31.933Z,0.89
2022-10-29T01:33:18.804Z,0.95
2022-10-29T01:35:47.250Z,1.06
2022-10-29T01:38:38.898Z,1.14
2022-10-29T01:41:17.125Z,1.23
2022-10-29T01:43:52.601Z,1.30
2022-10-29T01:46:45.461Z,1.43
2022-10-29T01:49:21.294Z,1.51
2022-10-29T01:51:52.296Z,1.78
2022-10-29T01:54:21.114Z,2.20
2022-10-29T01:57:00.766Z,2.76
2022-10-29T01:59:50.977Z,3.27
2022-10-29T02:02:26.147Z,3.85
2022-10-29T02:05:10.108Z,4.15
2022-10-29T02:07:55.843Z,4.25
2022-10-29T02:10:37.885Z,4.29
2022-10-29T02:13:10.691Z,3.84
2022-10-29T02:15:48.967Z,3.43
2022-10-29T02:18:18.546Z,3.14
2022-10-29T02:20:47.858Z,2.95
2022-10-29T02:23:17.889Z,2.88
2022-10-29T02:25:46.714Z,2.87
2022-10-29T02:28:15.728Z,2.82
2022-10-29T02:30:44.536Z,2.75
2022-10-29T02:33:13.356Z,2.80
2022-10-29T02:35:42.128Z,2.90
2022-10-29T02:38:10.911Z,3.07
2022-10-29T02:40:39.744Z,3.30
2022-10-29T02:43:08.497Z,3.58
2022-10-29T02:45:37.427Z,3.71
2022-10-29T02:48:06.628Z,3.67
2022-10-29T02:50:35.426Z,3.57
2022-10-29T02:53:04.143Z,3.43
2022-10-29T02:55:33.191Z,3.29
2022-10-29T02:58:02.023Z,3.11
2022-10-29T03:00:31.502Z,2.93
2022-10-29T03:03:00.863Z,2.81
2022-10-29T03:05:29.872Z,2.77
2022-10-29T03:07:58.643Z,2.82
2022-10-29T03:10:27.398Z,2.98
2022-10-29T03:12:59.819Z,3.22
2022-10-29T03:15:29.332Z,4.05
2022-10-29T03:17:58.492Z,4.66
2022-10-29T03:20:27.828Z,5.22
2022-10-29T03:22:56.617Z,6.17
2022-10-29T03:25:25.314Z,7.12
2022-10-29T03:27:54.602Z,7.85
2022-10-29T03:30:23.571Z,8.17
2022-10-29T03:32:52.525Z,8.34
2022-10-29T03:35:21.470Z,8.67
2022-10-29T03:37:51.791Z,9.18
2022-10-29T03:40:21.037Z,9.78
2022-10-29T03:42:49.860Z,9.84
2022-10-29T03:45:18.753Z,9.62
2022-10-29T03:47:47.541Z,9.15
2022-10-29T03:50:16.394Z,8.95
2022-10-29T03:52:45.209Z,8.93
2022-10-29T03:55:13.989Z,9.08
2022-10-29T03:57:42.715Z,9.30
2022-10-29T04:00:12.948Z,9.41
2022-10-29T04:02:42.060Z,9.28
2022-10-29T04:05:10.932Z,8.34
2022-10-29T04:07:39.730Z,7.91
2022-10-29T04:10:08.718Z,7.77
2022-10-29T04:12:37.455Z,7.50
2022-10-29T04:15:06.796Z,6.90
2022-10-29T04:17:35.531Z,6.22
2022-10-29T04:20:09.995Z,6.44
2022-10-29T04:28:45.438Z,4.97
2022-10-29T04:31:14.519Z,4.47
2022-10-29T04:33:43.541Z,4.76
2022-10-29T04:36:12.327Z,4.93
2022-10-29T04:38:41.089Z,5.13
2022-10-29T04:41:09.853Z,5.78
2022-10-29T04:43:38.618Z,6.51
2022-10-29T04:46:07.379Z,7.16
2022-10-29T04:48:36.132Z,7.41
2022-10-29T04:51:05.293Z,7.52
2022-10-29T04:53:34.084Z,7.18
2022-10-29T04:56:06.217Z,6.82
2022-10-29T04:58:34.962Z,6.67
2022-10-29T05:01:05.854Z,6.82
2022-10-29T05:03:35.680Z,6.81
2022-10-29T05:06:06.028Z,6.87
2022-10-29T05:08:34.829Z,7.12
2022-10-29T05:11:07.227Z,7.72
2022-10-29T05:13:36.130Z,8.35
2022-10-29T05:16:05.128Z,8.86
2022-10-29T05:18:33.854Z,9.07
2022-10-29T05:21:02.681Z,8.79
2022-10-29T05:23:31.501Z,8.25
2022-10-29T05:26:00.307Z,7.52
2022-10-29T05:28:29.197Z,7.47
2022-10-29T05:31:03.061Z,7.77
2022-10-29T05:33:31.844Z,7.79
2022-10-29T05:36:04.120Z,7.43
2022-10-29T05:38:33.067Z,6.79
2022-10-29T05:41:02.276Z,6.10
2022-10-29T05:43:31.011Z,5.63
2022-10-29T05:45:59.776Z,5.25
2022-10-29T05:48:28.518Z,4.79
2022-10-29T05:50:59.251Z,4.32
2022-10-29T05:53:28.083Z,3.86
2022-10-29T05:55:56.878Z,3.61
2022-10-29T05:58:25.822Z,3.42
2022-10-29T06:00:55.791Z,3.28
2022-10-29T06:03:24.971Z,3.20
2022-10-29T06:05:53.718Z,3.05
2022-10-29T06:08:22.489Z,2.94
2022-10-29T06:10:51.376Z,2.85
2022-10-29T06:13:22.260Z,2.76
2022-10-29T06:15:52.215Z,2.78
2022-10-29T06:18:20.982Z,2.77
2022-10-29T06:20:49.935Z,2.68
2022-10-29T06:23:18.676Z,2.56
2022-10-29T06:25:47.504Z,2.63
2022-10-29T06:28:16.965Z,2.70
2022-10-29T06:30:50.805Z,2.67
2022-10-29T06:33:20.184Z,2.61
2022-10-29T06:35:49.537Z,2.59
2022-10-29T06:38:18.299Z,2.64
2022-10-29T06:40:54.469Z,3.81
2022-10-29T06:43:23.318Z,4.18
2022-10-29T06:45:52.039Z,3.93
2022-10-29T06:48:22.360Z,3.62
2022-10-29T06:50:52.018Z,3.43
2022-10-29T06:53:21.094Z,3.31
2022-10-29T06:55:50.023Z,3.28
2022-10-29T06:58:21.722Z,3.22
2022-10-29T07:00:50.988Z,3.02
2022-10-29T07:03:23.663Z,2.88
2022-10-29T07:06:00.675Z,2.70
2022-10-29T07:08:31.120Z,2.60
2022-10-29T07:11:00.004Z,2.46
2022-10-29T07:13:28.783Z,2.29
2022-10-29T07:15:57.606Z,2.18
2022-10-29T07:18:26.506Z,2.03
2022-10-29T07:20:55.359Z,1.91
2022-10-29T07:23:24.225Z,1.76
2022-10-29T07:25:56.369Z,1.69
2022-10-29T07:28:26.186Z,1.61
2022-10-29T07:31:00.195Z,1.47
2022-10-29T07:33:31.569Z,1.40
2022-10-29T07:36:00.863Z,1.35
2022-10-29T07:38:29.666Z,1.27
2022-10-29T07:40:58.465Z,1.26
2022-10-29T07:43:27.223Z,1.20
2022-10-29T07:45:56.120Z,1.13
2022-10-29T07:48:25.142Z,1.07
2022-10-29T07:50:54.283Z,1.02
2022-10-29T07:53:22.975Z,0.98
2022-10-29T07:55:56.048Z,0.91
2022-10-29T07:58:25.420Z,0.84
2022-10-29T08:00:55.633Z,0.82
2022-10-29T08:03:24.724Z,0.79
2022-10-29T08:05:55.370Z,0.80
2022-10-29T08:08:26.906Z,0.86
2022-10-29T08:11:00.913Z,0.89
2022-10-29T08:13:29.956Z,0.90
2022-10-29T08:15:59.050Z,0.96
2022-10-29T08:18:27.938Z,0.99
2022-10-29T08:20:56.752Z,0.97
2022-10-29T08:23:25.529Z,0.90
2022-10-29T08:25:54.337Z,0.82
2022-10-29T08:28:25.689Z,0.75
2022-10-29T08:30:54.914Z,0.73
2022-10-29T08:33:23.788Z,0.65
2022-10-29T08:35:53.320Z,0.66
2022-10-29T08:38:26.221Z,0.63
2022-10-29T08:41:26.376Z,0.61
2022-10-29T08:44:16.163Z,0.58
2022-10-29T08:46:58.949Z,0.52
2022-10-29T08:49:50.020Z,0.48
2022-10-29T08:52:28.825Z,0.44
2022-10-29T08:55:27.693Z,0.44
2022-10-29T08:58:00.407Z,0.45
2022-10-29T09:00:39.140Z,0.48
2022-10-29T09:03:12.685Z,0.39
2022-10-29T09:05:50.458Z,0.48
2022-10-29T09:08:34.264Z,0.45
2022-10-29T09:11:40.761Z,0.45
2022-10-29T09:14:28.907Z,0.45
2022-10-29T09:17:32.891Z,0.42
2022-10-29T09:20:20.415Z,0.38
2022-10-29T09:22:59.133Z,0.38
2022-10-29T09:25:32.519Z,0.36
2022-10-29T09:28:26.645Z,0.30
2022-10-29T09:31:15.376Z,0.30
2022-10-29T09:33:51.264Z,0.28
2022-10-29T09:36:22.984Z,0.28
2022-10-29T09:38:58.571Z,0.26
2022-10-29T09:41:32.505Z,0.12
2022-10-29T09:44:07.045Z,0.28
2022-10-29T09:46:59.377Z,0.30
2022-10-29T09:49:45.835Z,0.30
2022-10-29T09:52:23.815Z,0.24
2022-10-29T09:54:55.564Z,0.36
2022-10-29T09:57:31.161Z,0.32
2022-10-29T10:00:06.422Z,0.33
2022-10-29T10:02:49.917Z,0.33
2022-10-29T10:05:29.042Z,0.31
2022-10-29T10:08:11.829Z,0.30
2022-10-29T10:10:58.303Z,0.27
2022-10-29T10:13:32.586Z,0.23
2022-10-29T10:16:05.847Z,0.23
2022-10-29T10:18:35.834Z,0.26
2022-10-29T10:21:25.431Z,0.21
2022-10-29T10:23:58.210Z,0.16
2022-10-29T10:26:28.975Z,0.14
2022-10-29T10:29:17.945Z,0.12
2022-10-29T10:32:10.963Z,0.08
2022-10-29T10:34:41.315Z,0.08
2022-10-29T10:37:21.750Z,0.11
2022-10-29T10:40:01.131Z,0.12
2022-10-29T10:42:37.628Z,0.06
2022-10-29T10:45:23.455Z,0.06
2022-10-29T10:47:59.948Z,0.09
2022-10-29T10:50:33.689Z,0.10
2022-10-29T10:53:17.622Z,0.09
2022-10-29T10:56:04.895Z,0.08
2022-10-29T10:58:40.951Z,0.09
2022-10-29T11:01:15.654Z,0.07
2022-10-29T11:03:48.159Z,0.08
2022-10-29T11:06:38.489Z,0.05
2022-10-29T11:09:46.624Z,0.07
2022-10-29T11:12:41.211Z,0.11
2022-10-29T11:15:41.961Z,0.09
2022-10-29T11:18:33.735Z,0.10
2022-10-29T11:21:23.750Z,0.11
2022-10-29T11:24:14.649Z,0.08
2022-10-29T11:27:16.202Z,0.03
2022-10-29T11:30:03.637Z,0.01
2022-10-29T11:33:00.896Z,-0.07
2022-10-29T11:35:42.164Z,-0.19
2022-10-29T11:38:34.713Z,-0.40
2022-10-29T11:41:28.282Z,-0.59
2022-10-29T11:43:57.206Z,-0.60
2022-10-29T11:46:42.188Z,-0.56
2022-10-29T11:49:17.048Z,-0.47
2022-10-29T11:52:15.575Z,-0.38
2022-10-29T11:55:16.619Z,-0.32
2022-10-29T11:57:55.729Z,-0.29
2022-10-29T12:00:28.713Z,-0.24
2022-10-29T12:03:14.750Z,-0.21
2022-10-29T12:05:55.537Z,-0.17
2022-10-29T12:08:39.632Z,-0.15
2022-10-29T12:11:21.569Z,-0.19
2022-10-29T12:13:57.810Z,-0.21
2022-10-29T12:16:44.961Z,-0.20
2022-10-29T12:19:30.421Z,-0.24
2022-10-29T12:22:20.612Z,-0.23
2022-10-29T12:25:22.220Z,-0.25
2022-10-29T12:28:20.166Z,-0.25
2022-10-29T12:31:21.661Z,-0.24
2022-10-29T12:34:09.081Z,-0.21
2022-10-29T12:36:56.696Z,-0.22
2022-10-29T12:39:45.872Z,-0.39
2022-10-29T12:42:25.654Z,-0.35
2022-10-29T12:45:13.178Z,-0.33
2022-10-29T12:48:17.125Z,-0.41
2022-10-29T12:50:45.910Z,-0.56
2022-10-29T12:53:20.486Z,-0.72
2022-10-29T12:55:50.560Z,-0.87
2022-10-29T12:59:01.270Z,-1.02
2022-10-29T13:01:57.345Z,-1.04
2022-10-29T13:04:32.787Z,-1.00
2022-10-29T13:10:31.774Z,-0.89
2022-10-29T13:13:02.270Z,-0.88
2022-10-29T13:15:37.281Z,-0.86
2022-10-29T13:18:23.347Z,-0.89
2022-10-29T13:20:55.599Z,-0.82
2022-10-29T13:23:24.878Z,-0.82
2022-10-29T13:25:54.957Z,-0.78
2022-10-29T13:28:23.761Z,-0.74
2022-10-29T13:31:03.002Z,-0.70
2022-10-29T13:33:32.197Z,-0.62
2022-10-29T13:36:30.044Z,-0.59
2022-10-29T13:39:07.782Z,-0.59
2022-10-29T13:41:43.765Z,-0.58
2022-10-29T13:44:17.454Z,-0.64
2022-10-29T13:47:06.049Z,-0.60
2022-10-29T13:49:45.473Z,-0.58
2022-10-29T13:52:16.415Z,-0.54
2022-10-29T13:54:53.202Z,-0.58
2022-10-29T13:57:34.276Z,-0.62
2022-10-29T14:00:07.514Z,-0.62
2022-10-29T14:02:43.429Z,-0.63
2022-10-29T14:05:15.553Z,-0.64
2022-10-29T14:07:50.146Z,-0.66
2022-10-29T14:13:25.476Z,-0.86
2022-10-29T14:16:09.568Z,-0.97
2022-10-29T14:18:41.816Z,-1.13
2022-10-29T14:21:18.325Z,-1.31
2022-10-29T14:24:06.469Z,-1.47
2022-10-29T14:26:42.511Z,-1.51
2022-10-29T14:29:19.437Z,-1.50
2022-10-29T14:31:49.112Z,-1.50
2022-10-29T14:34:28.431Z,-1.51
2022-10-29T14:37:07.781Z,-1.43
2022-10-29T14:39:57.164Z,-1.53
2022-10-29T14:42:38.876Z,-1.34
2022-10-29T14:45:29.024Z,-1.34
2022-10-29T14:48:10.161Z,-1.38
2022-10-29T14:50:39.367Z,-1.48
2022-10-29T14:53:28.232Z,-1.63
2022-10-29T14:55:58.920Z,-1.68
2022-10-29T14:58:32.009Z,-1.66
2022-10-29T15:01:06.517Z,-1.58
2022-10-29T15:03:36.853Z,-1.55
2022-10-29T15:06:27.341Z,-1.44
2022-10-29T15:09:08.052Z,-1.38
2022-10-29T15:11:40.117Z,-1.35
2022-10-29T15:14:40.429Z,-1.33
2022-10-29T15:17:28.097Z,-1.45
2022-10-29T15:20:04.186Z,-1.75
2022-10-29T15:22:35.674Z,-1.99
2022-10-29T15:25:07.990Z,-2.21
2022-10-29T15:27:39.937Z,-2.39
2022-10-29T15:30:09.332Z,-2.46
2022-10-29T15:32:39.050Z,-2.59
2022-10-29T15:35:11.400Z,-2.70
2022-10-29T15:37:43.487Z,-2.74
2022-10-29T15:40:16.041Z,-2.83
2022-10-29T15:42:48.128Z,-2.90
2022-10-29T15:45:19.697Z,-2.95
2022-10-29T15:47:53.550Z,-3.03
2022-10-29T15:50:30.587Z,-3.14
2022-10-29T15:53:00.092Z,-3.19
2022-10-29T15:55:31.742Z,-3.26
2022-10-29T15:58:07.556Z,-3.29
2022-10-29T16:00:37.320Z,-3.39
2022-10-29T16:03:21.175Z,-3.38
2022-10-29T16:06:06.091Z,-3.47
2022-10-29T16:08:58.308Z,-3.64
2022-10-29T16:11:28.208Z,-3.57
2022-10-29T16:13:57.009Z,-3.51
2022-10-29T16:16:26.566Z,-3.58
2022-10-29T16:18:55.398Z,-3.61
2022-10-29T16:21:26.742Z,-3.54
2022-10-29T16:23:55.563Z,-3.64
2022-10-29T16:26:26.589Z,-3.58
2022-10-29T16:28:55.502Z,-3.62
2022-10-29T16:31:29.318Z,-3.62
2022-10-29T16:34:02.082Z,-3.68
2022-10-29T16:36:31.064Z,-3.67
2022-10-29T16:39:01.978Z,-3.69
2022-10-29T16:41:33.635Z,-3.76
2022-10-29T16:44:03.366Z,-3.74
2022-10-29T16:46:34.401Z,-3.93
2022-10-29T16:49:03.383Z,-3.78
2022-10-29T16:51:32.395Z,-3.79
2022-10-29T16:54:01.196Z,-3.81
2022-10-29T16:56:30.126Z,-3.84
2022-10-29T16:59:01.786Z,-3.93
2022-10-29T17:01:31.366Z,-3.92
2022-10-29T17:04:01.356Z,-3.89
2022-10-29T17:06:31.745Z,-3.92
2022-10-29T17:09:00.517Z,-3.98
2022-10-29T17:11:30.225Z,-3.98
2022-10-29T17:13:59.002Z,-4.02
2022-10-29T17:16:28.214Z,-4.02
2022-10-29T17:18:58.743Z,-4.05
2022-10-29T17:21:30.336Z,-4.02
2022-10-29T17:24:02.389Z,-4.02
2022-10-29T17:26:34.336Z,-4.03
2022-10-29T17:29:04.298Z,-4.03
2022-10-29T17:31:33.081Z,-4.19
2022-10-29T17:34:01.889Z,-4.06
2022-10-29T17:36:30.747Z,-4.09
2022-10-29T17:39:00.365Z,-4.17
2022-10-29T17:41:29.267Z,-4.10
2022-10-29T17:43:58.064Z,-4.14
2022-10-29T17:46:26.893Z,-4.14
2022-10-29T17:48:57.645Z,-4.13
2022-10-29T17:51:26.758Z,-4.32
2022-10-29T17:53:55.704Z,-4.14
2022-10-29T17:56:24.702Z,-4.33
2022-10-29T17:58:53.544Z,-4.09
2022-10-29T18:01:22.823Z,-4.04
2022-10-29T18:03:52.000Z,-4.08
2022-10-29T18:06:20.856Z,-3.95
2022-10-29T18:08:49.611Z,-3.86
2022-10-29T18:11:23.804Z,-3.83
2022-10-29T18:13:53.326Z,-3.83
2022-10-29T18:16:26.498Z,-3.81
2022-10-29T18:19:02.051Z,-3.81
2022-10-29T18:21:32.470Z,-3.86
2022-10-29T18:24:01.316Z,-3.89
2022-10-29T18:26:32.701Z,-3.97
2022-10-29T18:29:04.151Z,-3.97
2022-10-29T18:31:33.108Z,-4.00
2022-10-29T18:34:06.774Z,-4.07
2022-10-29T18:36:36.211Z,-4.11
2022-10-29T18:39:06.736Z,-4.20
2022-10-29T18:41:36.158Z,-4.18
2022-10-29T18:44:05.173Z,-4.23
2022-10-29T18:46:34.651Z,-4.42
2022-10-29T18:49:05.123Z,-4.30
2022-10-29T18:51:33.980Z,-4.35
2022-10-29T18:54:03.674Z,-4.39
2022-10-29T18:56:32.736Z,-4.39
2022-10-29T18:59:01.533Z,-4.44
2022-10-29T19:01:33.971Z,-4.47
2022-10-29T19:04:06.195Z,-4.43
2022-10-29T19:06:37.566Z,-4.44
2022-10-29T19:09:09.652Z,-4.47
2022-10-29T19:11:38.912Z,-4.45
2022-10-29T19:14:12.436Z,-4.31
2022-10-29T19:16:41.299Z,-4.12
2022-10-29T19:19:13.284Z,-3.94
2022-10-29T19:21:42.856Z,-3.77
2022-10-29T19:24:15.060Z,-3.87
2022-10-29T19:26:44.645Z,-3.75
2022-10-29T19:29:14.339Z,-3.89
2022-10-29T19:31:45.856Z,-3.85
2022-10-29T19:34:14.845Z,-3.99
2022-10-29T19:36:43.605Z,-3.93
2022-10-29T19:39:12.368Z,-3.96
2022-10-29T19:41:41.393Z,-4.02
2022-10-29T19:44:10.178Z,-4.12
2022-10-29T19:46:38.903Z,-4.25
2022-10-29T19:49:09.184Z,-4.25
2022-10-29T19:51:37.964Z,-4.33
2022-10-29T19:54:09.319Z,-4.32
2022-10-29T19:56:38.280Z,-4.34
2022-10-29T19:59:07.155Z,-4.31
2022-10-29T20:01:40.182Z,-4.26
2022-10-29T20:04:11.290Z,-4.29
2022-10-29T20:06:40.062Z,-4.17
2022-10-29T20:09:09.286Z,-4.11
2022-10-29T20:11:38.387Z,-4.06
2022-10-29T20:14:07.350Z,-4.05
2022-10-29T20:16:36.134Z,-3.99
2022-10-29T20:19:05.604Z,-4.02
2022-10-29T20:21:34.345Z,-3.97
2022-10-29T20:24:03.121Z,-3.94
2022-10-29T20:26:31.942Z,-3.87
2022-10-29T20:29:00.752Z,-3.92
2022-10-29T20:31:32.308Z,-3.81
2022-10-29T20:34:03.568Z,-3.77
2022-10-29T20:36:33.579Z,-3.72
2022-10-29T20:39:02.642Z,-3.72
2022-10-29T20:41:31.453Z,-3.69
2022-10-29T20:44:01.980Z,-3.62
2022-10-29T20:46:31.287Z,-3.67
2022-10-29T20:49:00.275Z,-3.66
2022-10-29T20:51:29.903Z,-3.63
2022-10-29T20:54:00.127Z,-3.64
2022-10-29T20:56:29.133Z,-3.65
2022-10-29T20:58:58.034Z,-3.67
2022-10-29T21:01:27.729Z,-3.69
2022-10-29T21:03:57.088Z,-3.64
2022-10-29T21:06:25.982Z,-3.71
2022-10-29T21:08:54.984Z,-3.64
2022-10-29T21:11:24.889Z,-3.67
2022-10-29T21:13:53.700Z,-3.66
2022-10-29T21:16:25.340Z,-3.66
2022-10-29T21:18:59.727Z,-3.68
2022-10-29T21:21:31.661Z,-3.72
2022-10-29T21:24:00.512Z,-3.69
2022-10-29T21:26:30.289Z,-3.72
2022-10-29T21:28:59.383Z,-3.75
2022-10-29T21:31:28.946Z,-3.74
2022-10-29T21:33:57.707Z,-3.72
2022-10-29T21:36:26.537Z,-3.69
2022-10-29T21:38:55.357Z,-3.65
2022-10-29T21:41:24.089Z,-3.67
2022-10-29T21:43:52.929Z,-3.61
2022-10-29T21:46:21.744Z,-3.63
2022-10-29T21:48:50.711Z,-3.67
2022-10-29T21:51:20.011Z,-3.67
2022-10-29T21:53:49.325Z,-3.67
2022-10-29T21:56:18.436Z,-3.70
2022-10-29T21:58:47.226Z,-3.72
2022-10-29T22:01:18.196Z,-3.70
2022-10-29T22:03:48.653Z,-3.74
2022-10-29T22:06:19.841Z,-3.79
2022-10-29T22:08:55.838Z,-3.72
2022-10-29T22:11:26.620Z,-3.72
2022-10-29T22:13:56.224Z,-3.74
2022-10-29T22:16:25.160Z,-3.77
2022-10-29T22:18:54.400Z,-3.79
2022-10-29T22:21:26.146Z,-3.77
2022-10-29T22:23:59.050Z,-3.81
2022-10-29T22:26:31.175Z,-3.84
2022-10-29T22:29:00.044Z,-3.92
2022-10-29T22:31:28.877Z,-3.92
2022-10-29T22:33:57.776Z,-3.94
2022-10-29T22:36:28.741Z,-3.93
2022-10-29T22:38:59.589Z,-3.96
2022-10-29T22:41:30.200Z,-3.95
2022-10-29T22:43:59.789Z,-3.92
2022-10-29T22:46:30.065Z,-3.88
2022-10-29T22:48:59.419Z,-3.87
2022-10-29T22:51:32.742Z,-3.98
2022-10-29T22:54:02.262Z,-3.86
2022-10-29T22:56:33.998Z,-3.83
2022-10-29T22:59:04.143Z,-3.85
2022-10-29T23:01:40.245Z,-3.82
2022-10-29T23:04:13.347Z,-3.79
2022-10-29T23:06:42.153Z,-3.84
2022-10-29T23:09:11.628Z,-3.84
2022-10-29T23:11:40.638Z,-3.76
2022-10-29T23:14:09.639Z,-3.73
2022-10-29T23:16:39.075Z,-3.78
2022-10-29T23:19:07.930Z,-3.73
2022-10-29T23:21:37.045Z,-3.67
2022-10-29T23:24:06.739Z,-3.84
2022-10-29T23:26:36.533Z,-3.68
2022-10-29T23:29:05.346Z,-3.76
2022-10-29T23:31:34.095Z,-3.78
2022-10-29T23:34:03.367Z,-3.80
2022-10-29T23:36:34.068Z,-3.84
2022-10-29T23:39:03.364Z,-3.86
2022-10-29T23:41:32.475Z,-3.92
2022-10-29T23:44:01.333Z,-3.95
2022-10-29T23:46:30.577Z,-3.99
2022-10-29T23:48:59.670Z,-4.06
2022-10-29T23:51:29.441Z,-4.01
2022-10-29T23:53:58.283Z,-4.03
2022-10-29T23:56:27.504Z,-4.05
2022-10-29T23:58:57.526Z,-4.00
